Time;durP1;ratioP1;P1;durP2;ratioP2;P2;SDS_P1;SDS_P2;PMS_P1;PMS_P2;Temp;Humidity;BMP_temperature;BMP_pressure;BME280_temperature;BME280_humidity;BME280_pressure;Samples;Min_cycle;Max_cycle;Signal;HPM_P1;HPM_P2
2022/07/12 00:01:04;;;;;;;;;;;;;;;25.33;51.33;101531.25;5063466;28;19916;-84
2022/07/12 00:03:30;;;;;;;;;;;;;;;25.32;51.04;101532.16;5057813;28;20324;-84
2022/07/12 00:05:56;;;;;;;;;;;;;;;25.32;51.15;101532.16;5057001;28;19923;-84
2022/07/12 00:08:21;;;;;;;;;;;;;;;25.31;50.94;101525.00;5090549;28;19920;-83
2022/07/12 00:10:47;;;;;;;;;;;;;;;25.29;50.81;101534.78;5076286;28;19944;-83
2022/07/12 00:13:12;;;;;;;;;;;;;;;25.27;50.92;101539.22;5084614;28;20015;-83
2022/07/12 00:15:37;;;;;;;;;;;;;;;25.28;50.63;101533.91;5103434;28;20370;-83
2022/07/12 00:18:03;;;;;;;;;;;;;;;25.27;50.84;101541.91;5066855;28;19919;-83
2022/07/12 00:20:29;;;;;;;;;;;;;;;25.28;50.36;101541.91;5078304;28;20358;-83
2022/07/12 00:22:54;;;;;;;;;;;;;;;25.29;50.48;101542.81;5082564;28;19923;-83
2022/07/12 00:25:20;;;;;;;;;;;;;;;25.29;50.47;101545.47;5067021;28;20420;-83
2022/07/12 00:27:45;;;;;;;;;;;;;;;25.28;50.22;101546.38;5075779;28;20038;-83
2022/07/12 00:30:10;;;;;;;;;;;;;;;25.25;50.10;101552.59;5071300;28;20007;-84
2022/07/12 00:32:36;;;;;;;;;;;;;;;25.26;49.95;101543.69;5083509;28;19920;-83
2022/07/12 00:35:02;;;;;;;;;;;;;;;25.24;49.58;101544.56;5067479;28;19920;-83
2022/07/12 00:37:28;;;;;;;;;;;;;;;25.25;49.85;101541.91;5080348;28;19969;-84
2022/07/12 00:39:53;;;;;;;;;;;;;;;25.24;49.78;101544.56;5077676;28;19912;-84
2022/07/12 00:42:18;;;;;;;;;;;;;;;25.23;49.53;101537.41;5085665;28;19920;-83
2022/07/12 00:44:44;;;;;;;;;;;;;;;25.23;49.82;101535.66;5078310;28;19912;-82
2022/07/12 00:47:18;;;;;;;;;;;;;;;25.21;49.71;101542.78;5077702;28;19923;-83
2022/07/12 00:49:43;;;;;;;;;;;;;;;25.22;49.63;101536.53;5076702;28;20385;-83
2022/07/12 00:52:08;;;;;;;;;;;;;;;25.21;49.11;101528.50;5084335;28;19923;-83
2022/07/12 00:54:34;;;;;;;;;;;;;;;25.20;49.35;101535.63;5065764;28;19938;-83
2022/07/12 00:56:59;;;;;;;;;;;;;;;25.17;49.44;101527.56;5065534;28;19916;-83
2022/07/12 00:59:25;;;;;;;;;;;;;;;25.15;49.46;101535.56;5080719;28;19939;-85
2022/07/12 01:01:50;;;;;;;;;;;;;;;25.13;49.48;101534.66;5088961;28;19912;-84
2022/07/12 01:04:18;;;;;;;;;;;;;;;25.14;49.60;101527.53;5083163;28;20289;-83
2022/07/12 01:06:43;;;;;;;;;;;;;;;25.15;49.55;101532.91;5087906;28;19923;-83
2022/07/12 01:09:10;;;;;;;;;;;;;;;25.19;49.29;101531.16;5060376;28;19916;-83
2022/07/12 01:11:36;;;;;;;;;;;;;;;25.16;49.42;101525.75;5074051;28;19928;-83
2022/07/12 01:14:01;;;;;;;;;;;;;;;25.17;49.17;101522.22;5071292;28;20421;-82
2022/07/12 01:16:27;;;;;;;;;;;;;;;25.15;49.53;101516.88;5074082;28;19964;-82
2022/07/12 01:18:52;;;;;;;;;;;;;;;25.11;49.26;101517.72;5085931;28;20383;-82
2022/07/12 01:21:21;;;;;;;;;;;;;;;25.12;49.37;101523.97;5072383;28;20360;-82
2022/07/12 01:23:47;;;;;;;;;;;;;;;25.10;49.36;101526.63;5095845;28;20405;-83
2022/07/12 01:26:12;;;;;;;;;;;;;;;25.12;49.18;101518.59;5076685;28;20011;-82
2022/07/12 01:28:38;;;;;;;;;;;;;;;25.05;49.44;101520.34;5094966;28;19938;-82
2022/07/12 01:31:03;;;;;;;;;;;;;;;25.04;49.08;101521.25;5058919;28;19912;-83
2022/07/12 01:33:29;;;;;;;;;;;;;;;25.07;49.11;101523.06;5061555;28;20375;-83
2022/07/12 01:35:54;;;;;;;;;;;;;;;25.07;48.90;101521.25;5064789;28;19964;-82
2022/07/12 01:38:20;;;;;;;;;;;;;;;25.07;48.84;101517.69;5071483;28;20285;-82
2022/07/12 01:40:45;;;;;;;;;;;;;;;25.08;49.01;101519.47;5094615;28;20007;-82
2022/07/12 01:43:11;;;;;;;;;;;;;;;25.02;48.99;101508.75;5091439;28;20365;-82
2022/07/12 01:45:36;;;;;;;;;;;;;;;25.05;48.73;101512.34;5075527;28;19916;-83
2022/07/12 01:48:03;;;;;;;;;;;;;;;25.07;48.86;101521.25;5090425;28;19965;-83
2022/07/12 01:50:28;;;;;;;;;;;;;;;25.01;48.71;101517.66;5073727;28;20057;-82
2022/07/12 01:52:53;;;;;;;;;;;;;;;24.98;48.58;101518.53;5089677;28;19970;-84
2022/07/12 01:55:19;;;;;;;;;;;;;;;24.97;48.82;101519.41;5062248;28;19956;-83
2022/07/12 01:57:44;;;;;;;;;;;;;;;24.96;48.76;101518.53;5089203;28;20453;-82
2022/07/12 02:00:10;;;;;;;;;;;;;;;24.93;48.66;101521.19;5087524;28;19923;-83
2022/07/12 02:02:36;;;;;;;;;;;;;;;24.96;49.03;101517.63;5083163;28;19916;-83
2022/07/12 02:05:02;;;;;;;;;;;;;;;24.98;48.70;101519.44;5085426;28;20003;-82
2022/07/12 02:07:27;;;;;;;;;;;;;;;24.90;48.94;101514.91;5080740;28;19924;-83
2022/07/12 02:09:53;;;;;;;;;;;;;;;24.91;49.04;101524.72;5069566;28;19916;-82
2022/07/12 02:12:18;;;;;;;;;;;;;;;24.93;49.11;101522.94;5065596;28;20349;-82
2022/07/12 02:14:44;;;;;;;;;;;;;;;24.94;48.88;101525.63;5074499;28;19916;-83
2022/07/12 02:17:09;;;;;;;;;;;;;;;24.96;48.77;101521.19;5090638;28;19920;-83
2022/07/12 02:19:34;;;;;;;;;;;;;;;24.95;48.70;101524.72;5082591;28;19989;-83
2022/07/12 02:22:00;;;;;;;;;;;;;;;24.91;48.83;101524.72;5055810;28;20445;-83
2022/07/12 02:24:25;;;;;;;;;;;;;;;24.92;48.58;101527.41;5057057;28;20420;-83
2022/07/12 02:26:51;;;;;;;;;;;;;;;24.94;48.22;101528.31;5065108;28;19922;-83
2022/07/12 02:29:16;;;;;;;;;;;;;;;24.91;48.64;101522.03;5065916;28;19916;-84
2022/07/12 02:31:41;;;;;;;;;;;;;;;24.86;48.70;101526.47;5090455;28;19931;-84
2022/07/12 02:34:07;;;;;;;;;;;;;;;24.88;48.52;101532.72;5076937;28;19924;-83
2022/07/12 02:36:33;;;;;;;;;;;;;;;24.89;48.48;101531.81;5082258;28;19935;-83
2022/07/12 02:39:02;;;;;;;;;;;;;;;24.88;48.28;101538.06;5090255;28;19916;-82
2022/07/12 02:41:28;;;;;;;;;;;;;;;24.86;48.40;101540.72;5073656;28;19920;-82
2022/07/12 02:43:53;;;;;;;;;;;;;;;24.87;48.28;101538.94;5092992;28;19919;-82
2022/07/12 02:46:19;;;;;;;;;;;;;;;24.83;48.18;101539.78;5076351;28;19973;-83
2022/07/12 02:48:44;;;;;;;;;;;;;;;24.81;48.30;101544.22;5076950;28;20411;-82
2022/07/12 02:51:10;;;;;;;;;;;;;;;24.86;48.11;101539.81;5085614;28;19981;-83
2022/07/12 02:53:36;;;;;;;;;;;;;;;24.81;48.11;101538.88;5057834;28;19976;-82
2022/07/12 02:56:01;;;;;;;;;;;;;;;24.81;48.18;101538.88;5073245;28;19916;-82
2022/07/12 02:58:27;;;;;;;;;;;;;;;24.83;47.92;101542.47;5078815;28;19916;-82
2022/07/12 03:00:52;;;;;;;;;;;;;;;24.82;47.94;101532.66;5051278;28;19916;-84
2022/07/12 03:03:18;;;;;;;;;;;;;;;24.79;47.91;101534.44;5088304;28;20448;-84
2022/07/12 03:05:43;;;;;;;;;;;;;;;24.82;47.94;101538.00;5069863;28;20416;-84
2022/07/12 03:08:09;;;;;;;;;;;;;;;24.79;48.01;101536.22;5067104;28;19924;-83
2022/07/12 03:10:35;;;;;;;;;;;;;;;24.79;47.89;101542.44;5086639;28;19924;-83
2022/07/12 03:13:01;;;;;;;;;;;;;;;24.77;47.86;101536.19;5094410;28;19917;-84
2022/07/12 03:15:27;;;;;;;;;;;;;;;24.74;47.82;101544.22;5069954;28;19912;-84
2022/07/12 03:17:53;;;;;;;;;;;;;;;24.75;48.02;101545.09;5066606;28;19923;-84
2022/07/12 03:20:19;;;;;;;;;;;;;;;24.73;47.89;101545.06;5084095;28;20011;-83
2022/07/12 03:22:46;;;;;;;;;;;;;;;24.73;48.03;101552.19;5062963;28;19938;-85
2022/07/12 03:25:12;;;;;;;;;;;;;;;24.77;48.24;101549.56;5076618;28;19977;-84
2022/07/12 03:27:37;;;;;;;;;;;;;;;24.73;48.27;101553.09;5070914;28;20466;-84
2022/07/12 03:30:03;;;;;;;;;;;;;;;24.72;48.01;101551.31;5096916;28;20011;-83
2022/07/12 03:32:28;;;;;;;;;;;;;;;24.69;48.20;101559.28;5064702;28;19916;-83
2022/07/12 03:34:54;;;;;;;;;;;;;;;24.71;48.18;101557.53;5077452;28;20439;-83
2022/07/12 03:37:19;;;;;;;;;;;;;;;24.71;48.40;101554.84;5085844;28;20430;-83
2022/07/12 03:39:44;;;;;;;;;;;;;;;24.69;48.31;101556.59;5084965;28;20267;-83
2022/07/12 03:42:13;;;;;;;;;;;;;;;24.72;48.22;101569.09;5089274;28;20385;-83
2022/07/12 03:44:38;;;;;;;;;;;;;;;24.69;48.36;101561.94;5083630;28;19943;-85
2022/07/12 03:47:04;;;;;;;;;;;;;;;24.69;48.18;101550.38;5090098;28;19916;-84
2022/07/12 03:49:30;;;;;;;;;;;;;;;24.69;48.28;101558.41;5079450;28;19929;-84
2022/07/12 03:51:55;;;;;;;;;;;;;;;24.68;48.31;101559.25;5070138;28;19920;-84
2022/07/12 03:54:21;;;;;;;;;;;;;;;24.71;48.46;101564.66;5065215;28;19927;-85
2022/07/12 03:59:30;;;;;;;;;;;;;;;24.65;48.38;101560.13;5080903;28;19931;-84
2022/07/12 04:01:56;;;;;;;;;;;;;;;24.65;48.43;101559.25;5057186;28;19917;-85
2022/07/12 04:04:21;;;;;;;;;;;;;;;24.62;48.50;101557.44;5087959;28;20524;-84
2022/07/12 04:06:47;;;;;;;;;;;;;;;24.65;48.59;101567.25;5091875;28;19916;-82
2022/07/12 04:09:12;;;;;;;;;;;;;;;24.65;48.57;101567.25;5084987;28;20035;-83
2022/07/12 04:11:38;;;;;;;;;;;;;;;24.66;48.76;101561.03;5091462;28;19954;-84
2022/07/12 04:14:03;;;;;;;;;;;;;;;24.64;48.30;101566.38;5089689;28;19928;-83
2022/07/12 04:16:29;;;;;;;;;;;;;;;24.63;48.44;101566.34;5090191;28;19926;-84
2022/07/12 04:18:55;;;;;;;;;;;;;;;24.62;48.55;101569.88;5065135;28;20309;-84
2022/07/12 04:21:21;;;;;;;;;;;;;;;24.60;48.58;101567.22;5072947;28;19916;-84
2022/07/12 04:23:46;;;;;;;;;;;;;;;24.62;48.62;101567.22;5084267;28;20023;-83
2022/07/12 04:26:11;;;;;;;;;;;;;;;24.62;48.68;101562.78;5088098;28;20419;-83
2022/07/12 04:28:37;;;;;;;;;;;;;;;24.59;48.66;101568.09;5068023;28;20480;-83
2022/07/12 04:31:03;;;;;;;;;;;;;;;24.62;48.88;101573.47;5074215;28;20029;-83
2022/07/12 04:33:29;;;;;;;;;;;;;;;24.58;48.74;101572.53;5082605;28;19920;-82
2022/07/12 04:35:54;;;;;;;;;;;;;;;24.57;48.95;101568.09;5075989;28;19974;-82
2022/07/12 04:38:19;;;;;;;;;;;;;;;24.59;48.83;101570.75;5038364;28;19920;-82
2022/07/12 04:40:45;;;;;;;;;;;;;;;24.57;49.06;101564.50;5080492;28;19917;-82
2022/07/12 04:43:10;;;;;;;;;;;;;;;24.55;49.12;101568.94;5041040;28;20077;-81
2022/07/12 04:45:36;;;;;;;;;;;;;;;24.53;49.20;101568.94;5055730;28;19916;-80
2022/07/12 04:48:01;;;;;;;;;;;;;;;24.53;49.18;101579.63;5059680;28;19923;-80
2022/07/12 04:50:27;;;;;;;;;;;;;;;24.53;49.44;101573.38;5080356;28;20366;-82
2022/07/12 04:52:52;;;;;;;;;;;;;;;24.51;49.18;101575.13;5063653;28;20442;-79
2022/07/12 04:55:18;;;;;;;;;;;;;;;24.50;49.42;101574.25;5062517;28;19927;-80
2022/07/12 04:57:43;;;;;;;;;;;;;;;24.48;49.46;101577.75;5068464;28;19966;-80
2022/07/12 05:00:09;;;;;;;;;;;;;;;24.47;49.77;101573.28;5093624;28;20287;-81
2022/07/12 05:02:34;;;;;;;;;;;;;;;24.48;49.36;101567.06;5090240;28;20349;-78
2022/07/12 05:05:00;;;;;;;;;;;;;;;24.53;50.17;101574.28;5082365;28;20456;-80
2022/07/12 05:07:25;;;;;;;;;;;;;;;24.69;49.18;101575.31;5053074;28;19958;-80
2022/07/12 05:09:51;;;;;;;;;;;;;;;24.65;49.71;101576.16;5066717;28;20011;-81
2022/07/12 05:12:17;;;;;;;;;;;;;;;24.68;50.05;101580.63;5074362;28;19946;-88
2022/07/12 05:14:42;;;;;;;;;;;;;;;24.64;51.02;101584.16;5075057;28;20285;-82
2022/07/12 05:17:08;;;;;;;;;;;;;;;24.60;50.02;101587.69;5077240;28;19917;-82
2022/07/12 05:19:33;;;;;;;;;;;;;;;24.59;50.08;101573.44;5080674;28;19916;-81
2022/07/12 05:21:58;;;;;;;;;;;;;;;24.55;49.50;101580.53;5059913;28;19924;-84
2022/07/12 05:24:24;;;;;;;;;;;;;;;24.50;49.57;101576.91;5081205;28;19923;-82
2022/07/12 05:26:49;;;;;;;;;;;;;;;24.59;49.50;101589.44;5071621;28;19916;-82
2022/07/12 05:29:15;;;;;;;;;;;;;;;24.53;49.68;101582.31;5075496;28;20389;-82
2022/07/12 05:31:40;;;;;;;;;;;;;;;24.55;49.45;101583.22;5070189;28;20395;-82
2022/07/12 05:34:05;;;;;;;;;;;;;;;24.52;50.10;101585.84;5091151;28;20382;-83
2022/07/12 05:36:31;;;;;;;;;;;;;;;24.46;50.76;101580.41;5085475;28;19938;-82
2022/07/12 05:38:56;;;;;;;;;;;;;;;24.44;50.84;101576.81;5087560;28;20305;-84
2022/07/12 05:41:22;;;;;;;;;;;;;;;24.45;50.11;101585.72;5061496;28;19917;-82
2022/07/12 05:43:47;;;;;;;;;;;;;;;24.43;51.06;101582.16;5082321;28;19921;-83
2022/07/12 05:46:13;;;;;;;;;;;;;;;24.49;50.02;101591.16;5078902;28;19950;-82
2022/07/12 05:48:39;;;;;;;;;;;;;;;24.51;49.72;101594.75;5059338;28;19912;-82
2022/07/12 05:53:49;;;;;;;;;;;;;;;24.44;50.77;101586.63;5088033;28;20404;-83
2022/07/12 05:56:15;;;;;;;;;;;;;;;24.43;49.44;101593.72;5099319;27;20002;-82
2022/07/12 05:58:43;;;;;;;;;;;;;;;24.56;48.90;101592.13;5072525;28;19934;-83
2022/07/12 06:01:09;;;;;;;;;;;;;;;24.51;49.61;101591.16;5088012;28;19962;-83
2022/07/12 06:03:34;;;;;;;;;;;;;;;24.48;49.08;101585.75;5090515;28;19920;-81
2022/07/12 06:06:00;;;;;;;;;;;;;;;24.56;48.70;101590.31;5097549;28;20317;-82
2022/07/12 06:08:25;;;;;;;;;;;;;;;24.51;49.92;101593.81;5085830;28;20058;-82
2022/07/12 06:10:51;;;;;;;;;;;;;;;24.49;50.03;101591.16;5098772;28;19989;-83
2022/07/12 06:13:16;;;;;;;;;;;;;;;24.43;49.97;101599.06;5109478;28;19923;-82
2022/07/12 06:15:41;;;;;;;;;;;;;;;24.46;49.58;101592.88;5080574;28;19913;-82
2022/07/12 06:18:07;;;;;;;;;;;;;;;24.50;50.19;101592.94;5092314;28;19963;-80
2022/07/12 06:20:33;;;;;;;;;;;;;;;24.52;48.59;101596.53;5078395;28;20344;-83
2022/07/12 06:22:59;;;;;;;;;;;;;;;24.47;49.78;101602.66;5059582;28;20339;-81
2022/07/12 06:25:24;;;;;;;;;;;;;;;24.42;50.43;101609.72;5083342;28;19917;-83
2022/07/12 06:27:50;;;;;;;;;;;;;;;24.46;49.22;101607.09;5080654;28;19955;-83
2022/07/12 06:30:16;;;;;;;;;;;;;;;24.46;49.70;101603.53;5076161;28;19935;-82
2022/07/12 06:32:42;;;;;;;;;;;;;;;24.44;49.84;101607.97;5042937;28;19927;-82
2022/07/12 06:35:08;;;;;;;;;;;;;;;24.45;49.23;101609.75;5078918;28;19935;-82
2022/07/12 06:37:33;;;;;;;;;;;;;;;24.57;47.82;101604.56;5079203;28;20007;-83
2022/07/12 06:39:59;;;;;;;;;;;;;;;24.54;49.09;101602.78;5077302;28;20373;-83
2022/07/12 06:42:24;;;;;;;;;;;;;;;24.55;48.38;101603.66;5083401;28;19916;-84
2022/07/12 06:44:50;;;;;;;;;;;;;;;24.59;50.19;101605.47;5085654;28;19939;-83
2022/07/12 06:47:18;;;;;;;;;;;;;;;24.54;49.79;101601.88;5084211;28;19916;-82
2022/07/12 06:49:44;;;;;;;;;;;;;;;24.53;50.52;101602.75;5085342;28;20366;-82
2022/07/12 06:52:10;;;;;;;;;;;;;;;24.61;50.21;101602.84;5057684;28;20393;-82
2022/07/12 06:54:35;;;;;;;;;;;;;;;24.57;50.54;101599.22;5068171;28;19928;-82
2022/07/12 06:57:00;;;;;;;;;;;;;;;24.55;50.47;101598.31;5069277;28;20298;-83
2022/07/12 06:59:26;;;;;;;;;;;;;;;24.54;50.92;101600.09;5095895;28;19916;-81
2022/07/12 07:01:52;;;;;;;;;;;;;;;24.58;50.92;101593.91;5093878;28;20324;-82
2022/07/12 07:04:18;;;;;;;;;;;;;;;24.61;50.42;101595.72;5093251;28;20144;-82
2022/07/12 07:06:43;;;;;;;;;;;;;;;24.61;50.56;101593.03;5059678;28;19923;-82
2022/07/12 07:09:09;;;;;;;;;;;;;;;24.61;49.99;101589.47;5100826;28;20005;-82
2022/07/12 07:11:35;;;;;;;;;;;;;;;24.62;49.41;101589.50;5079873;28;20409;-82
2022/07/12 07:14:00;;;;;;;;;;;;;;;24.59;51.01;101592.13;5083899;28;19916;-83
2022/07/12 07:16:26;;;;;;;;;;;;;;;24.61;48.33;101582.34;5093171;28;19938;-80
2022/07/12 07:18:51;;;;;;;;;;;;;;;24.58;49.39;101579.66;5076848;28;20397;-81
2022/07/12 07:21:16;;;;;;;;;;;;;;;24.55;49.94;101590.31;5095020;28;20401;-81
2022/07/12 07:23:43;;;;;;;;;;;;;;;24.56;50.30;101589.44;5092065;28;20313;-81
2022/07/12 07:26:08;;;;;;;;;;;;;;;24.62;49.84;101584.16;5085389;28;19922;-81
2022/07/12 07:30:51;;;;;;;;;;;;;;;24.61;48.58;101584.13;5078582;28;19976;-81
2022/07/12 07:31:19;;;;;;;;;;;;;;;24.67;49.53;101584.19;5090444;28;20014;-82
2022/07/12 07:33:44;;;;;;;;;;;;;;;24.64;49.97;101586.81;5097202;28;20014;-80
2022/07/12 07:36:10;;;;;;;;;;;;;;;24.61;49.38;101592.16;5072300;28;20432;-81
2022/07/12 07:38:35;;;;;;;;;;;;;;;24.64;48.53;101594.84;5072647;28;20531;-80
2022/07/12 07:41:01;;;;;;;;;;;;;;;24.67;49.45;101601.09;5088393;28;20347;-84
2022/07/12 07:43:26;;;;;;;;;;;;;;;24.62;49.28;101589.50;5100127;28;20010;-83
2022/07/12 07:45:52;;;;;;;;;;;;;;;24.72;48.64;101595.81;5071348;28;20395;-81
2022/07/12 07:48:17;;;;;;;;;;;;;;;24.65;49.29;101589.50;5095364;28;19923;-83
2022/07/12 07:50:43;;;;;;;;;;;;;;;24.70;49.18;101592.22;5089986;28;19912;-82
2022/07/12 07:53:08;;;;;;;;;;;;;;;24.64;49.03;101587.75;5085231;28;19943;-81
2022/07/12 07:55:34;;;;;;;;;;;;;;;24.60;49.66;101599.28;5087275;28;20408;-82
2022/07/12 07:58:00;;;;;;;;;;;;;;;24.69;48.77;101593.13;5091389;28;20392;-80
2022/07/12 08:00:26;;;;;;;;;;;;;;;24.66;48.67;101587.72;5090914;28;19916;-81
2022/07/12 08:02:51;;;;;;;;;;;;;;;24.75;48.70;101590.50;5087776;28;19923;-83
2022/07/12 08:05:17;;;;;;;;;;;;;;;24.66;49.00;101588.66;5073676;28;19912;-82
2022/07/12 08:07:42;;;;;;;;;;;;;;;24.73;48.87;101592.28;5081619;28;20426;-82
2022/07/12 08:10:08;;;;;;;;;;;;;;;24.71;48.44;101588.69;5087074;28;20433;-82
2022/07/12 08:12:34;;;;;;;;;;;;;;;24.74;48.48;101583.34;5053880;28;20309;-81
2022/07/12 08:14:59;;;;;;;;;;;;;;;24.72;49.22;101587.78;5075076;28;20320;-82
2022/07/12 08:17:25;;;;;;;;;;;;;;;24.67;48.85;101586.88;5089435;28;20385;-82
2022/07/12 08:19:50;;;;;;;;;;;;;;;24.68;49.32;101583.28;5060922;28;19912;-82
2022/07/12 08:22:16;;;;;;;;;;;;;;;24.72;48.45;101579.78;5081883;28;19973;-82
2022/07/12 08:24:41;;;;;;;;;;;;;;;24.71;48.66;101573.53;5087918;28;19998;-81
2022/07/12 08:27:07;;;;;;;;;;;;;;;24.69;49.08;101572.63;5076095;28;19912;-82
2022/07/12 08:29:32;;;;;;;;;;;;;;;24.71;49.13;101576.22;5088709;28;19916;-83
2022/07/12 08:31:58;;;;;;;;;;;;;;;24.72;48.45;101577.09;5090011;28;19916;-82
2022/07/12 08:34:23;;;;;;;;;;;;;;;24.74;49.07;101570.00;5070633;28;19940;-82
2022/07/12 08:36:51;;;;;;;;;;;;;;;24.71;48.92;101570.88;5078657;28;21331;-82
2022/07/12 08:39:16;;;;;;;;;;;;;;;24.73;48.71;101568.22;5053516;28;19919;-82
2022/07/12 08:41:42;;;;;;;;;;;;;;;24.71;48.60;101562.84;5076870;28;20336;-83
2022/07/12 08:44:08;;;;;;;;;;;;;;;24.69;48.66;101566.41;5081504;28;19966;-82
2022/07/12 08:46:33;;;;;;;;;;;;;;;24.67;49.27;101565.50;5083021;28;19916;-83
2022/07/12 08:49:04;;;;;;;;;;;;;;;24.68;49.34;101560.19;5094577;28;20394;-82
2022/07/12 08:51:29;;;;;;;;;;;;;;;24.75;48.95;101550.44;5089398;28;19993;-83
2022/07/12 08:54:05;;;;;;;;;;;;;;;24.76;48.91;101555.81;5086778;28;20309;-83
2022/07/12 08:56:32;;;;;;;;;;;;;;;24.71;48.97;101559.31;5086045;28;20019;-82
2022/07/12 08:59:17;;;;;;;;;;;;;;;24.74;49.29;101551.31;5095203;28;19919;-84
2022/07/12 09:01:43;;;;;;;;;;;;;;;24.73;48.52;101552.19;5058089;28;20309;-82
2022/07/12 09:04:18;;;;;;;;;;;;;;;24.76;48.49;101549.53;5084405;28;19917;-83
2022/07/12 09:06:44;;;;;;;;;;;;;;;24.77;49.11;101548.66;5090967;28;19912;-82
2022/07/12 09:09:10;;;;;;;;;;;;;;;24.76;49.18;101553.13;5071343;28;19920;-81
2022/07/12 09:11:38;;;;;;;;;;;;;;;24.74;49.56;101546.88;5077158;28;19916;-82
2022/07/12 09:14:07;;;;;;;;;;;;;;;24.73;48.75;101534.38;5103403;28;19916;-82
2022/07/12 09:16:32;;;;;;;;;;;;;;;24.78;48.91;101539.75;5097122;28;20411;-82
2022/07/12 09:19:19;;;;;;;;;;;;;;;24.78;48.83;101534.41;5076173;28;19916;-82
2022/07/12 09:21:52;;;;;;;;;;;;;;;24.79;49.45;101530.88;5071580;28;19912;-83
2022/07/12 09:24:18;;;;;;;;;;;;;;;24.82;49.09;101546.03;5076523;28;19916;-83
2022/07/12 09:26:44;;;;;;;;;;;;;;;24.82;49.38;101538.91;5089983;28;20396;-82
2022/07/12 09:29:10;;;;;;;;;;;;;;;24.82;49.46;101538.91;5069249;28;20287;-82
2022/07/12 09:31:40;;;;;;;;;;;;;;;24.82;49.68;101540.69;5105557;28;19919;-83
2022/07/12 09:36:56;;;;;;;;;;;;;;;24.88;48.55;101533.59;5098013;28;20490;-83
2022/07/12 09:39:22;;;;;;;;;;;;;;;24.89;49.31;101531.81;5098479;28;19920;-82
2022/07/12 09:41:52;;;;;;;;;;;;;;;24.88;48.96;101525.59;5078241;28;19912;-83
2022/07/12 09:44:20;;;;;;;;;;;;;;;24.92;49.38;101535.41;5061266;28;19916;-82
2022/07/12 09:46:47;;;;;;;;;;;;;;;24.93;49.09;101525.63;5057326;28;19934;-84
2022/07/12 09:49:12;;;;;;;;;;;;;;;24.90;49.27;101531.84;5087146;28;20452;-83
2022/07/12 09:51:37;;;;;;;;;;;;;;;24.90;49.26;101530.97;5101660;28;19947;-82
2022/07/12 09:54:03;;;;;;;;;;;;;;;24.92;49.51;101526.50;5074000;28;20409;-81
2022/07/12 09:56:28;;;;;;;;;;;;;;;24.96;48.77;101529.22;5061776;28;20385;-81
2022/07/12 09:58:54;;;;;;;;;;;;;;;25.00;49.00;101530.13;5086521;28;20620;-81
2022/07/12 10:01:20;;;;;;;;;;;;;;;24.97;49.08;101531.00;5074607;28;19956;-81
2022/07/12 10:03:46;;;;;;;;;;;;;;;24.97;49.17;101524.75;5079160;28;20550;-82
2022/07/12 10:06:12;;;;;;;;;;;;;;;25.02;49.11;101520.34;5076470;28;20011;-80
2022/07/12 10:08:37;;;;;;;;;;;;;;;25.06;48.81;101514.16;5080242;28;19912;-80
2022/07/12 10:11:03;;;;;;;;;;;;;;;25.04;48.61;101509.66;5086787;28;19919;-79
2022/07/12 10:13:30;;;;;;;;;;;;;;;25.03;49.19;101518.56;5072953;28;19924;-80
2022/07/12 10:16:02;;;;;;;;;;;;;;;25.07;48.95;101520.38;5099528;28;19912;-82
2022/07/12 10:18:27;;;;;;;;;;;;;;;25.07;48.88;101517.69;5074882;28;19916;-81
2022/07/12 10:20:53;;;;;;;;;;;;;;;25.06;49.54;101503.47;5092671;28;19919;-82
2022/07/12 10:23:30;;;;;;;;;;;;;;;25.11;49.10;101500.81;5101894;28;20408;-80
2022/07/12 10:25:55;;;;;;;;;;;;;;;25.06;48.90;101505.22;5070820;28;19923;-82
2022/07/12 10:28:21;;;;;;;;;;;;;;;25.14;49.15;101498.13;5082373;28;19912;-82
2022/07/12 10:30:50;;;;;;;;;;;;;;;25.07;49.07;101505.22;5070518;28;19920;-83
2022/07/12 10:33:15;;;;;;;;;;;;;;;25.09;49.54;101495.44;5080604;28;19935;-83
2022/07/12 10:35:40;;;;;;;;;;;;;;;25.08;48.95;101488.31;5085346;28;19928;-82
2022/07/12 10:38:12;;;;;;;;;;;;;;;25.08;49.10;101498.09;5071512;28;19922;-81
2022/07/12 10:40:38;;;;;;;;;;;;;;;25.11;49.13;101504.38;5074082;28;20386;-83
2022/07/12 10:43:07;;;;;;;;;;;;;;;25.16;49.24;101499.03;5074767;28;19923;-83
2022/07/12 10:45:33;;;;;;;;;;;;;;;25.10;49.25;101494.53;5074093;28;19912;-82
2022/07/12 10:48:02;;;;;;;;;;;;;;;25.11;49.31;101499.03;5079707;28;20409;-82
2022/07/12 10:50:57;;;;;;;;;;;;;;;25.17;48.86;101491.03;5072149;28;20275;-83
2022/07/12 10:53:26;;;;;;;;;;;;;;;25.22;48.67;101480.41;5060313;28;20409;-83
2022/07/12 10:56:06;;;;;;;;;;;;;;;25.22;49.13;101475.03;5073338;28;19918;-84
2022/07/12 10:58:35;;;;;;;;;;;;;;;25.23;49.28;101486.63;5098513;28;20007;-82
2022/07/12 11:01:02;;;;;;;;;;;;;;;25.19;49.34;101478.56;5081669;28;20020;-83
2022/07/12 11:03:31;;;;;;;;;;;;;;;25.21;49.64;101489.31;5073539;28;20301;-83
2022/07/12 11:06:03;;;;;;;;;;;;;;;25.24;49.30;101485.75;5095382;28;19916;-83
2022/07/12 11:08:29;;;;;;;;;;;;;;;25.24;49.83;101483.09;5101584;28;20405;-82
2022/07/12 11:10:55;;;;;;;;;;;;;;;25.18;49.12;101479.44;5066496;28;19912;-83
2022/07/12 11:13:22;;;;;;;;;;;;;;;25.18;49.12;101481.22;5076434;28;19911;-83
2022/07/12 11:15:57;;;;;;;;;;;;;;;25.24;49.40;101475.94;5065195;28;19920;-83
2022/07/12 11:18:32;;;;;;;;;;;;;;;25.22;50.08;101482.19;5091300;28;20346;-82
2022/07/12 11:20:58;;;;;;;;;;;;;;;25.25;49.39;101482.19;5070377;28;19919;-83
2022/07/12 11:23:27;;;;;;;;;;;;;;;25.23;49.53;101481.28;5061443;28;20001;-83
2022/07/12 11:25:56;;;;;;;;;;;;;;;25.22;49.07;101474.16;5087822;28;19920;-82
2022/07/12 11:28:24;;;;;;;;;;;;;;;25.25;49.59;101480.44;5082403;28;19917;-83
2022/07/12 11:30:56;;;;;;;;;;;;;;;25.26;49.58;101476.84;5061229;28;19987;-83
2022/07/12 11:33:24;;;;;;;;;;;;;;;25.28;49.37;101485.78;5057066;28;20054;-82
2022/07/12 11:35:50;;;;;;;;;;;;;;;25.32;49.47;101482.22;5058853;28;20010;-81
2022/07/12 11:38:15;;;;;;;;;;;;;;;25.34;49.06;101482.25;5086409;28;19959;-81
2022/07/12 11:40:42;;;;;;;;;;;;;;;25.30;49.44;101488.47;5084426;28;20310;-82
2022/07/12 11:43:07;;;;;;;;;;;;;;;25.27;49.36;101481.28;5052838;28;19913;-82
2022/07/12 11:45:36;;;;;;;;;;;;;;;25.31;49.80;101480.44;5064423;28;20117;-82
2022/07/12 11:48:02;;;;;;;;;;;;;;;25.32;49.67;101479.56;5091130;28;20385;-83
2022/07/12 11:50:31;;;;;;;;;;;;;;;25.29;49.61;101479.53;5058558;28;20453;-82
2022/07/12 11:52:56;;;;;;;;;;;;;;;25.30;49.68;101484.00;5059396;28;19982;-81
2022/07/12 11:55:22;;;;;;;;;;;;;;;25.32;49.25;101476.88;5069380;28;20390;-82
2022/07/12 11:57:48;;;;;;;;;;;;;;;25.34;50.09;101480.47;5078852;28;19920;-82
2022/07/12 12:00:14;;;;;;;;;;;;;;;25.32;50.32;101481.34;5081786;28;19913;-81
2022/07/12 12:02:43;;;;;;;;;;;;;;;25.33;49.98;101475.09;5070602;28;19944;-82
2022/07/12 12:05:13;;;;;;;;;;;;;;;25.36;49.76;101470.66;5052620;28;19958;-83
2022/07/12 12:07:38;;;;;;;;;;;;;;;25.41;49.40;101462.66;5072989;28;19923;-82
2022/07/12 12:10:04;;;;;;;;;;;;;;;25.40;49.96;101468.91;5053336;28;19912;-82
2022/07/12 12:12:38;;;;;;;;;;;;;;;25.39;49.70;101462.63;5065048;28;19969;-82
2022/07/12 12:15:04;;;;;;;;;;;;;;;25.41;49.41;101473.34;5056810;28;19917;-82
2022/07/12 12:17:30;;;;;;;;;;;;;;;25.42;48.49;101467.13;5072847;28;20001;-84
2022/07/12 12:19:55;;;;;;;;;;;;;;;25.40;49.27;101468.91;5058757;28;20310;-83
2022/07/12 12:22:27;;;;;;;;;;;;;;;25.38;49.74;101470.69;5063919;28;19921;-83
2022/07/12 12:24:59;;;;;;;;;;;;;;;25.31;49.75;101474.19;5084795;28;20010;-83
2022/07/12 12:27:25;;;;;;;;;;;;;;;25.32;50.72;101487.56;5057019;28;19916;-82
2022/07/12 12:29:51;;;;;;;;;;;;;;;25.35;49.89;101486.69;5071540;28;19916;-82
2022/07/12 12:32:20;;;;;;;;;;;;;;;25.38;50.32;101486.72;5066381;28;20394;-83
2022/07/12 12:35:04;;;;;;;;;;;;;;;25.37;49.63;101480.44;5053542;28;20065;-82
2022/07/12 12:37:29;;;;;;;;;;;;;;;25.38;49.37;101482.25;5071522;28;19923;-82
2022/07/12 12:39:56;;;;;;;;;;;;;;;25.42;50.46;101485.84;5086569;28;19917;-83